Time;durP1;ratioP1;P1;durP2;ratioP2;P2;SDS_P1;SDS_P2;PMS_P1;PMS_P2;Temp;Humidity;BMP_temperature;BMP_pressure;BME280_temperature;BME280_humidity;BME280_pressure;Samples;Min_cycle;Max_cycle;Signal;HPM_P1;HPM_P2
2022/12/02 00:01:23;;;;;;;52.35;19.33;;;;;;;;;;6209342;23;20444;-91
2022/12/02 00:04:00;;;;;;;51.78;19.38;;;;;;;;;;6215894;23;20462;-91
2022/12/02 00:06:30;;;;;;;56.50;21.58;;;;;;;;;;6215116;23;20330;-91
2022/12/02 00:09:04;;;;;;;46.58;18.63;;;;;;;;;;6212672;22;20016;-92
2022/12/02 00:11:31;;;;;;;56.92;18.75;;;;;;;;;;6214140;23;20008;-91
2022/12/02 00:14:09;;;;;;;55.95;19.17;;;;;;;;;;6212161;23;20333;-91
2022/12/02 00:16:35;;;;;;;51.05;19.33;;;;;;;;;;6211574;23;20008;-91
2022/12/02 00:19:01;;;;;;;62.00;21.35;;;;;;;;;;6213200;23;20011;-91
2022/12/02 00:21:27;;;;;;;51.42;18.92;;;;;;;;;;6213340;23;20030;-91
2022/12/02 00:23:56;;;;;;;62.65;20.42;;;;;;;;;;6213316;23;20008;-91
2022/12/02 00:26:31;;;;;;;57.63;18.35;;;;;;;;;;6213630;23;20042;-92
2022/12/02 00:28:57;;;;;;;49.63;19.33;;;;;;;;;;6213920;23;20447;-91
2022/12/02 00:31:26;;;;;;;48.85;18.52;;;;;;;;;;6239979;23;20070;-91
2022/12/02 00:33:52;;;;;;;54.08;19.67;;;;;;;;;;6211291;23;20467;-92
2022/12/02 00:36:18;;;;;;;60.33;20.33;;;;;;;;;;6212834;23;20073;-91
2022/12/02 00:38:44;;;;;;;54.13;20.48;;;;;;;;;;6214320;23;20015;-91
2022/12/02 00:41:13;;;;;;;53.97;19.60;;;;;;;;;;6211388;23;20387;-92
2022/12/02 00:46:32;;;;;;;60.97;20.42;;;;;;;;;;6217401;23;20023;-91
2022/12/02 00:48:58;;;;;;;50.70;17.88;;;;;;;;;;6211643;23;20460;-90
2022/12/02 00:51:24;;;;;;;53.47;19.77;;;;;;;;;;6213685;23;20047;-91
2022/12/02 00:53:53;;;;;;;51.80;19.33;;;;;;;;;;6213930;23;20091;-91
2022/12/02 00:56:19;;;;;;;50.42;17.55;;;;;;;;;;6213220;23;20332;-92
2022/12/02 00:58:45;;;;;;;47.63;17.88;;;;;;;;;;6210922;23;20023;-91
2022/12/02 01:01:12;;;;;;;56.83;18.88;;;;;;;;;;6214094;23;20001;-91
2022/12/02 01:03:41;;;;;;;55.67;18.08;;;;;;;;;;6211355;23;20099;-92
2022/12/02 01:06:12;;;;;;;44.50;16.02;;;;;;;;;;6214331;23;20008;-91
2022/12/02 01:08:51;;;;;;;54.28;18.10;;;;;;;;;;6212991;22;20020;-91
2022/12/02 01:11:17;;;;;;;48.83;15.40;;;;;;;;;;6184375;23;20020;-91
2022/12/02 01:13:55;;;;;;;50.90;16.90;;;;;;;;;;6182428;23;20018;-91
2022/12/02 01:16:21;;;;;;;44.42;15.90;;;;;;;;;;6182347;23;20142;-91
2022/12/02 01:18:47;;;;;;;53.08;15.95;;;;;;;;;;6182083;23;20016;-92
2022/12/02 01:21:13;;;;;;;45.08;15.77;;;;;;;;;;6183794;23;20386;-91
2022/12/02 01:23:39;;;;;;;39.83;16.73;;;;;;;;;;6183315;23;20015;-91
2022/12/02 01:26:16;;;;;;;53.38;15.88;;;;;;;;;;6183360;23;20043;-92
2022/12/02 01:28:55;;;;;;;41.38;14.13;;;;;;;;;;6184385;23;20393;-91
2022/12/02 01:31:21;;;;;;;42.15;14.98;;;;;;;;;;6183218;23;20325;-91
2022/12/02 01:33:47;;;;;;;47.65;16.13;;;;;;;;;;6182622;23;20441;-92
2022/12/02 01:36:13;;;;;;;53.95;18.13;;;;;;;;;;6183057;23;20007;-91
2022/12/02 01:38:39;;;;;;;47.08;15.52;;;;;;;;;;6182103;23;20420;-90
2022/12/02 01:41:08;;;;;;;49.60;16.33;;;;;;;;;;6182493;23;20011;-91
2022/12/02 01:43:34;;;;;;;57.67;16.98;;;;;;;;;;6182351;23;20013;-91
2022/12/02 01:46:00;;;;;;;57.30;18.08;;;;;;;;;;6182278;23;20009;-90
2022/12/02 01:48:27;;;;;;;54.47;17.85;;;;;;;;;;6183237;23;20015;-91
2022/12/02 01:50:53;;;;;;;52.17;17.42;;;;;;;;;;6180578;23;20016;-91
2022/12/02 01:53:20;;;;;;;54.90;17.75;;;;;;;;;;6182842;23;20520;-92
2022/12/02 01:55:46;;;;;;;52.80;18.63;;;;;;;;;;6182944;23;20336;-91
2022/12/02 01:58:13;;;;;;;54.28;17.30;;;;;;;;;;6181591;23;20434;-90
2022/12/02 02:00:39;;;;;;;52.78;16.88;;;;;;;;;;6182086;23;20439;-91
2022/12/02 02:03:05;;;;;;;50.10;17.60;;;;;;;;;;6181716;23;20040;-91
2022/12/02 02:05:32;;;;;;;57.58;18.20;;;;;;;;;;6181972;23;20127;-90
2022/12/02 02:08:03;;;;;;;47.10;16.80;;;;;;;;;;6180906;23;20012;-90
2022/12/02 02:10:29;;;;;;;52.70;18.55;;;;;;;;;;6206137;22;20019;-90
2022/12/02 02:12:55;;;;;;;63.45;17.80;;;;;;;;;;6211006;23;20000;-91
2022/12/02 02:15:22;;;;;;;52.10;16.55;;;;;;;;;;6213116;23;20441;-90
2022/12/02 02:17:49;;;;;;;45.95;17.13;;;;;;;;;;6211233;23;20282;-91
2022/12/02 02:20:20;;;;;;;59.25;19.23;;;;;;;;;;6211772;23;20009;-91
2022/12/02 02:23:07;;;;;;;51.92;17.20;;;;;;;;;;6211612;23;20038;-91
2022/12/02 02:25:34;;;;;;;62.10;18.23;;;;;;;;;;6197972;23;20005;-90
2022/12/02 02:28:01;;;;;;;58.90;16.67;;;;;;;;;;6212592;23;20078;-91
2022/12/02 02:30:34;;;;;;;59.30;17.85;;;;;;;;;;6212926;23;20010;-92
2022/12/02 02:33:04;;;;;;;49.85;16.98;;;;;;;;;;6212812;23;20463;-91
2022/12/02 02:35:31;;;;;;;54.70;19.73;;;;;;;;;;6212364;23;20481;-91
2022/12/02 02:37:57;;;;;;;55.83;17.15;;;;;;;;;;6212067;23;20487;-91
2022/12/02 02:40:24;;;;;;;62.88;19.63;;;;;;;;;;6211697;23;20004;-91
2022/12/02 02:42:55;;;;;;;60.45;19.50;;;;;;;;;;6211683;23;20008;-91
2022/12/02 02:45:22;;;;;;;55.95;19.42;;;;;;;;;;6213949;23;20009;-91
2022/12/02 02:47:48;;;;;;;61.70;20.15;;;;;;;;;;6211538;23;20008;-92
2022/12/02 02:50:21;;;;;;;58.28;20.00;;;;;;;;;;6211699;23;20011;-90
2022/12/02 02:52:48;;;;;;;57.13;18.20;;;;;;;;;;6206368;23;20532;-91
2022/12/02 02:55:30;;;;;;;;;;;;;;;;;;;;;
2022/12/02 02:58:09;;;;;;;54.22;17.63;;;;;;;;;;6237037;23;20516;-91
2022/12/02 03:00:38;;;;;;;49.05;17.52;;;;;;;;;;6211555;23;20309;-91
2022/12/02 03:03:07;;;;;;;51.65;16.17;;;;;;;;;;6212860;23;20008;-91
2022/12/02 03:05:33;;;;;;;52.03;17.08;;;;;;;;;;6210409;23;20079;-91
2022/12/02 03:08:15;;;;;;;;;;;;;;;;;;;;;
2022/12/02 03:10:42;;;;;;;61.80;19.13;;;;;;;;;;6239065;22;20131;-91
2022/12/02 03:13:08;;;;;;;54.42;17.60;;;;;;;;;;6210454;23;20008;-92
2022/12/02 03:15:34;;;;;;;53.38;16.80;;;;;;;;;;6212437;23;20016;-91
2022/12/02 03:18:00;;;;;;;61.53;17.92;;;;;;;;;;6211301;23;20023;-91
2022/12/02 03:20:27;;;;;;;49.50;17.20;;;;;;;;;;6212022;23;20080;-92
2022/12/02 03:22:55;;;;;;;49.05;16.80;;;;;;;;;;6209688;23;20000;-91
2022/12/02 03:25:34;;;;;;;48.80;16.98;;;;;;;;;;6212643;23;20428;-92
2022/12/02 03:28:01;;;;;;;47.40;16.67;;;;;;;;;;6186766;23;20013;-91
2022/12/02 03:30:27;;;;;;;47.85;16.45;;;;;;;;;;6212415;23;20107;-92
2022/12/02 03:32:59;;;;;;;54.38;17.70;;;;;;;;;;6210328;23;20433;-91
2022/12/02 03:35:25;;;;;;;52.25;17.15;;;;;;;;;;6210061;23;20615;-91
2022/12/02 03:37:54;;;;;;;47.33;17.20;;;;;;;;;;6212398;23;20425;-91
2022/12/02 03:40:20;;;;;;;57.20;17.73;;;;;;;;;;6213199;23;20004;-91
2022/12/02 03:42:46;;;;;;;50.42;18.27;;;;;;;;;;6211786;23;20008;-91
2022/12/02 03:45:15;;;;;;;57.53;17.95;;;;;;;;;;6212775;23;20039;-91
2022/12/02 03:47:43;;;;;;;55.33;17.30;;;;;;;;;;6211630;23;20505;-92
2022/12/02 03:50:10;;;;;;;47.25;16.00;;;;;;;;;;6210068;23;20008;-92
2022/12/02 03:52:36;;;;;;;54.72;17.38;;;;;;;;;;6210503;23;20075;-92
2022/12/02 03:55:02;;;;;;;60.47;19.20;;;;;;;;;;6207481;23;20107;-92
2022/12/02 03:57:34;;;;;;;50.03;17.35;;;;;;;;;;6210423;23;20055;-91
2022/12/02 04:00:00;;;;;;;44.75;16.60;;;;;;;;;;6212988;23;20052;-91
2022/12/02 04:02:29;;;;;;;51.10;18.05;;;;;;;;;;6212295;23;20034;-91
2022/12/02 04:05:14;;;;;;;51.95;16.35;;;;;;;;;;6211557;23;20004;-91
2022/12/02 04:07:40;;;;;;;56.95;16.85;;;;;;;;;;6216258;23;20016;-91
2022/12/02 04:10:06;;;;;;;58.65;18.13;;;;;;;;;;6212707;22;20020;-91
2022/12/02 04:12:33;;;;;;;51.58;18.65;;;;;;;;;;6212922;23;20008;-91
2022/12/02 04:14:59;;;;;;;59.08;19.00;;;;;;;;;;6211346;23;20012;-91
2022/12/02 04:17:25;;;;;;;50.78;17.92;;;;;;;;;;6212862;23;20336;-91
2022/12/02 04:19:51;;;;;;;51.67;16.42;;;;;;;;;;6210076;23;20094;-91
2022/12/02 04:22:17;;;;;;;53.47;18.27;;;;;;;;;;6211962;23;20281;-92
2022/12/02 04:24:43;;;;;;;55.33;17.50;;;;;;;;;;6212495;23;20456;-91
2022/12/02 04:27:09;;;;;;;54.75;18.05;;;;;;;;;;6239408;23;20010;-91
2022/12/02 04:29:35;;;;;;;57.08;18.65;;;;;;;;;;6210818;23;20008;-91
2022/12/02 04:32:06;;;;;;;65.57;18.50;;;;;;;;;;6213016;23;20043;-91
2022/12/02 04:34:35;;;;;;;65.75;18.58;;;;;;;;;;6186401;23;20008;-91
2022/12/02 04:37:02;;;;;;;57.05;17.98;;;;;;;;;;6212676;23;20008;-92
2022/12/02 04:39:28;;;;;;;65.90;19.20;;;;;;;;;;6211925;23;20094;-92
2022/12/02 04:42:00;;;;;;;67.20;20.50;;;;;;;;;;6212199;23;20015;-91
2022/12/02 04:44:26;;;;;;;59.55;19.67;;;;;;;;;;6211212;23;20091;-91
2022/12/02 04:46:52;;;;;;;61.88;19.63;;;;;;;;;;6212516;23;20345;-91
2022/12/02 04:49:18;;;;;;;61.38;20.25;;;;;;;;;;6210441;23;20095;-92
2022/12/02 04:51:47;;;;;;;56.75;19.63;;;;;;;;;;6213296;23;20012;-92
2022/12/02 04:54:13;;;;;;;57.90;19.92;;;;;;;;;;6212588;23;20011;-92
2022/12/02 04:56:47;;;;;;;63.05;20.08;;;;;;;;;;6213487;23;20101;-91
2022/12/02 04:59:16;;;;;;;66.05;20.25;;;;;;;;;;6212479;23;20218;-92
2022/12/02 05:01:48;;;;;;;75.00;20.70;;;;;;;;;;6213865;23;20109;-91
2022/12/02 05:04:23;;;;;;;64.05;19.55;;;;;;;;;;6212017;23;20317;-92
2022/12/02 05:06:52;;;;;;;56.60;19.05;;;;;;;;;;6213021;23;20047;-90
2022/12/02 05:09:21;;;;;;;59.20;19.67;;;;;;;;;;6213070;22;20066;-91
2022/12/02 05:11:47;;;;;;;62.08;20.35;;;;;;;;;;6213481;23;20681;-91
2022/12/02 05:14:15;;;;;;;63.90;19.38;;;;;;;;;;6212585;23;20091;-91
2022/12/02 05:16:41;;;;;;;60.97;19.83;;;;;;;;;;6213766;23;20008;-91
2022/12/02 05:19:07;;;;;;;59.40;20.20;;;;;;;;;;6212410;23;20034;-91
2022/12/02 05:21:34;;;;;;;67.82;20.88;;;;;;;;;;6213758;23;20008;-91
2022/12/02 05:24:00;;;;;;;60.60;21.42;;;;;;;;;;6239157;23;19996;-91
2022/12/02 05:26:28;;;;;;;68.85;20.10;;;;;;;;;;6213380;23;20012;-91
2022/12/02 05:28:54;;;;;;;78.78;22.35;;;;;;;;;;6212707;23;20354;-91
2022/12/02 05:31:24;;;;;;;70.63;21.58;;;;;;;;;;6213575;23;20004;-92
2022/12/02 05:33:50;;;;;;;72.05;21.85;;;;;;;;;;6212498;23;20356;-91
2022/12/02 05:36:21;;;;;;;77.95;21.77;;;;;;;;;;6213302;23;20400;-91
2022/12/02 05:38:52;;;;;;;67.57;20.67;;;;;;;;;;6212729;23;20000;-92
2022/12/02 05:41:18;;;;;;;75.78;22.38;;;;;;;;;;6213078;23;20079;-92
2022/12/02 05:43:45;;;;;;;70.47;21.30;;;;;;;;;;6212141;23;20432;-92
2022/12/02 05:46:47;;;;;;;66.70;21.50;;;;;;;;;;6212153;23;20069;-91
2022/12/02 05:49:18;;;;;;;70.95;22.58;;;;;;;;;;6210385;23;20435;-91
2022/12/02 05:51:45;;;;;;;80.20;23.73;;;;;;;;;;6212843;23;20385;-91
2022/12/02 05:54:17;;;;;;;83.63;21.83;;;;;;;;;;6211586;23;20008;-91
2022/12/02 05:56:47;;;;;;;74.43;21.35;;;;;;;;;;6211941;23;20099;-92
2022/12/02 05:59:23;;;;;;;75.68;20.75;;;;;;;;;;6209957;23;20011;-92
2022/12/02 06:01:52;;;;;;;;;;;;;;;;;;6212940;23;20345;-91
2022/12/02 06:04:20;;;;;;;79.72;21.40;;;;;;;;;;6211136;23;19995;-91
2022/12/02 06:06:46;;;;;;;69.22;21.58;;;;;;;;;;6213261;23;20479;-91
2022/12/02 06:09:17;;;;;;;63.78;21.27;;;;;;;;;;6212129;22;20008;-91
2022/12/02 06:11:44;;;;;;;69.63;21.25;;;;;;;;;;6237631;23;20015;-91
2022/12/02 06:14:24;;;;;;;72.78;21.42;;;;;;;;;;6211379;23;20015;-92
2022/12/02 06:17:01;;;;;;;66.82;19.83;;;;;;;;;;6212615;23;20020;-92
2022/12/02 06:19:28;;;;;;;83.30;22.50;;;;;;;;;;6211131;23;20074;-92
2022/12/02 06:21:56;;;;;;;70.43;21.00;;;;;;;;;;6212275;23;20007;-91
2022/12/02 06:24:31;;;;;;;81.45;22.58;;;;;;;;;;6212967;23;20099;-91
2022/12/02 06:27:02;;;;;;;71.15;21.42;;;;;;;;;;6212187;23;20008;-92
2022/12/02 06:29:32;;;;;;;76.88;21.83;;;;;;;;;;6212271;23;20008;-93
2022/12/02 06:32:10;;;;;;;81.93;21.25;;;;;;;;;;6212305;23;20393;-91
2022/12/02 06:34:41;;;;;;;70.47;21.52;;;;;;;;;;6214075;23;20043;-91
2022/12/02 06:37:28;;;;;;;76.72;22.42;;;;;;;;;;6212478;23;20011;-92
2022/12/02 06:39:55;;;;;;;73.50;22.83;;;;;;;;;;6212318;23;20012;-92
2022/12/02 06:42:41;;;;;;;79.05;21.50;;;;;;;;;;6218728;23;20015;-92
2022/12/02 06:45:28;;;;;;;73.28;21.05;;;;;;;;;;6212575;23;20001;-91
2022/12/02 06:48:02;;;;;;;77.15;21.38;;;;;;;;;;6211564;23;20016;-92
2022/12/02 06:50:31;;;;;;;67.38;20.35;;;;;;;;;;6210802;23;20008;-91
2022/12/02 06:53:24;;;;;;;76.82;22.17;;;;;;;;;;6211374;23;20000;-91
2022/12/02 06:55:52;;;;;;;74.55;21.73;;;;;;;;;;6166540;23;20040;-92
2022/12/02 06:58:35;;;;;;;83.97;22.85;;;;;;;;;;6211998;23;20008;-91
2022/12/02 07:01:24;;;;;;;73.57;20.77;;;;;;;;;;6213021;23;20011;-92
2022/12/02 07:03:59;;;;;;;79.05;23.95;;;;;;;;;;6184970;23;20004;-91
2022/12/02 07:06:26;;;;;;;91.82;23.15;;;;;;;;;;6212641;23;20014;-92
2022/12/02 07:08:55;;;;;;;80.63;23.95;;;;;;;;;;6211923;23;20392;-92
2022/12/02 07:11:56;;;;;;;80.35;22.40;;;;;;;;;;6214575;22;20400;-91
2022/12/02 07:14:33;;;;;;;69.40;22.15;;;;;;;;;;6212401;23;20008;-92
2022/12/02 07:17:07;;;;;;;75.05;23.00;;;;;;;;;;6211198;23;20016;-91
2022/12/02 07:19:41;;;;;;;75.22;22.05;;;;;;;;;;6212261;23;20004;-92
2022/12/02 07:22:22;;;;;;;79.22;23.90;;;;;;;;;;6211331;23;20427;-91
2022/12/02 07:24:54;;;;;;;74.20;22.33;;;;;;;;;;6212140;23;20028;-91
2022/12/02 07:27:22;;;;;;;69.15;21.85;;;;;;;;;;6212682;23;20459;-92
2022/12/02 07:29:57;;;;;;;71.13;20.60;;;;;;;;;;6211501;23;20050;-90
2022/12/02 07:32:23;;;;;;;78.55;24.15;;;;;;;;;;6212824;23;20012;-92
2022/12/02 07:34:49;;;;;;;85.57;24.25;;;;;;;;;;6211169;23;20319;-93
2022/12/02 07:37:19;;;;;;;81.55;23.15;;;;;;;;;;6212750;23;20015;-92
2022/12/02 07:39:45;;;;;;;67.15;19.73;;;;;;;;;;6212769;23;20012;-92
2022/12/02 07:42:20;;;;;;;66.93;21.10;;;;;;;;;;6212647;23;20035;-91
2022/12/02 07:44:46;;;;;;;69.50;21.02;;;;;;;;;;6213559;23;20444;-91
2022/12/02 07:47:12;;;;;;;77.97;23.50;;;;;;;;;;6211759;23;20239;-91
2022/12/02 07:49:38;;;;;;;55.88;17.20;;;;;;;;;;6211847;23;20138;-92
2022/12/02 07:52:07;;;;;;;63.58;19.52;;;;;;;;;;6212056;23;20460;-92
2022/12/02 07:54:43;;;;;;;76.38;23.52;;;;;;;;;;6211681;23;20008;-91
2022/12/02 07:57:09;;;;;;;66.35;19.23;;;;;;;;;;6212401;23;20091;-92
2022/12/02 07:59:35;;;;;;;74.30;21.45;;;;;;;;;;6210720;23;20032;-91
2022/12/02 08:02:01;;;;;;;69.55;21.45;;;;;;;;;;6212455;23;20050;-91
2022/12/02 08:04:30;;;;;;;86.20;23.30;;;;;;;;;;6219212;23;20143;-91
2022/12/02 08:07:14;;;;;;;;;;;;;;;;;;;;;
2022/12/02 08:09:41;;;;;;;70.22;23.10;;;;;;;;;;6213942;23;20094;-92
2022/12/02 08:12:12;;;;;;;52.08;18.90;;;;;;;;;;6213254;22;20063;-91
2022/12/02 08:14:39;;;;;;;65.97;16.95;;;;;;;;;;6211030;23;20502;-91
2022/12/02 08:17:07;;;;;;;51.85;14.98;;;;;;;;;;6213003;23;20012;-91
2022/12/02 08:19:36;;;;;;;55.40;16.58;;;;;;;;;;6210765;23;20019;-91
2022/12/02 08:22:16;;;;;;;34.05;11.55;;;;;;;;;;6213506;23;20062;-91
2022/12/02 08:24:42;;;;;;;70.80;19.35;;;;;;;;;;6189770;23;20448;-90
2022/12/02 08:27:12;;;;;;;56.88;16.20;;;;;;;;;;6214139;23;20008;-91
2022/12/02 08:29:52;;;;;;;67.93;20.50;;;;;;;;;;6214701;23;20422;-91
2022/12/02 08:32:28;;;;;;;65.03;17.80;;;;;;;;;;6215408;23;20021;-91
2022/12/02 08:34:54;;;;;;;56.33;18.25;;;;;;;;;;6212801;23;20440;-92
2022/12/02 08:37:30;;;;;;;66.85;19.33;;;;;;;;;;6213373;23;20031;-91
2022/12/02 08:39:56;;;;;;;;;;;;;;;;;;6213624;23;20396;-91
2022/12/02 08:42:22;;;;;;;59.17;18.92;;;;;;;;;;6212535;23;19903;-91
2022/12/02 08:44:48;;;;;;;54.08;17.42;;;;;;;;;;6212944;23;20078;-91
2022/12/02 08:47:17;;;;;;;60.53;17.50;;;;;;;;;;6212512;23;20016;-91
2022/12/02 08:49:43;;;;;;;58.30;19.05;;;;;;;;;;6213195;23;20035;-91
2022/12/02 08:52:09;;;;;;;56.38;16.67;;;;;;;;;;6212772;23;20008;-91
2022/12/02 08:54:39;;;;;;;66.85;19.55;;;;;;;;;;6213116;23;20042;-92
2022/12/02 08:57:06;;;;;;;68.03;17.38;;;;;;;;;;6213222;23;20414;-91
2022/12/02 08:59:32;;;;;;;56.13;18.48;;;;;;;;;;6212581;23;20087;-91
2022/12/02 09:01:58;;;;;;;60.63;17.23;;;;;;;;;;6212963;23;20447;-91
2022/12/02 09:04:26;;;;;;;63.92;19.20;;;;;;;;;;6213071;23;20004;-92
2022/12/02 09:06:52;;;;;;;64.45;18.42;;;;;;;;;;6213836;23;20008;-92
2022/12/02 09:09:24;;;;;;;62.35;18.20;;;;;;;;;;6211284;23;20016;-92
2022/12/02 09:12:16;;;;;;;62.80;19.35;;;;;;;;;;6217586;22;20012;-92
2022/12/02 09:14:48;;;;;;;58.78;17.65;;;;;;;;;;6266363;23;20042;-92
2022/12/02 09:17:22;;;;;;;62.88;14.60;;;;;;;;;;6268126;23;20073;-91
2022/12/02 09:19:53;;;;;;;60.63;16.83;;;;;;;;;;6241738;23;20005;-91
2022/12/02 09:22:38;;;;;;;65.40;16.38;;;;;;;;;;6234537;23;20138;-91
2022/12/02 09:25:32;;;;;;;66.60;17.27;;;;;;;;;;6232784;23;20008;-91
2022/12/02 09:28:02;;;;;;;67.75;17.45;;;;;;;;;;6218985;23;20012;-91
2022/12/02 09:30:28;;;;;;;54.70;17.13;;;;;;;;;;6213488;23;20630;-91
2022/12/02 09:32:56;;;;;;;56.33;17.98;;;;;;;;;;6213273;23;20083;-92
2022/12/02 09:35:22;;;;;;;75.13;19.77;;;;;;;;;;6212247;23;20303;-90
2022/12/02 09:37:55;;;;;;;52.67;13.55;;;;;;;;;;6213425;23;20447;-91
2022/12/02 09:40:22;;;;;;;49.42;16.05;;;;;;;;;;6213121;23;20036;-92
2022/12/02 09:42:49;;;;;;;62.95;19.42;;;;;;;;;;6211702;23;20391;-92
2022/12/02 09:45:18;;;;;;;67.20;19.65;;;;;;;;;;6213567;23;20007;-91
2022/12/02 09:47:44;;;;;;;50.92;17.95;;;;;;;;;;6212869;23;20043;-91
2022/12/02 09:50:13;;;;;;;64.20;18.73;;;;;;;;;;6213207;23;20012;-91
2022/12/02 09:52:41;;;;;;;64.00;18.92;;;;;;;;;;6212790;23;20727;-91
2022/12/02 09:55:13;;;;;;;60.97;17.30;;;;;;;;;;6212866;23;20011;-91
2022/12/02 09:57:39;;;;;;;55.13;17.98;;;;;;;;;;6211822;23;20380;-91
2022/12/02 10:00:11;;;;;;;58.65;17.40;;;;;;;;;;6214044;23;20111;-91
2022/12/02 10:02:38;;;;;;;57.03;18.70;;;;;;;;;;6212391;23;20004;-91
2022/12/02 10:05:06;;;;;;;49.80;17.23;;;;;;;;;;6212034;23;20000;-91
2022/12/02 10:07:32;;;;;;;60.15;17.98;;;;;;;;;;6213137;23;20095;-92
2022/12/02 10:10:04;;;;;;;52.85;17.67;;;;;;;;;;6211918;23;20043;-92
2022/12/02 10:12:40;;;;;;;50.10;18.30;;;;;;;;;;6236759;22;20616;-92
2022/12/02 10:15:10;;;;;;;57.85;17.73;;;;;;;;;;6212942;23;20379;-91
2022/12/02 10:17:36;;;;;;;55.88;17.50;;;;;;;;;;6212731;23;20020;-92
2022/12/02 10:20:03;;;;;;;55.10;18.52;;;;;;;;;;6212494;23;20008;-91
2022/12/02 10:22:31;;;;;;;52.70;17.17;;;;;;;;;;6212193;23;20012;-92
2022/12/02 10:24:57;;;;;;;64.55;19.90;;;;;;;;;;6212834;23;20481;-91
2022/12/02 10:27:23;;;;;;;57.95;19.02;;;;;;;;;;6213006;23;20008;-92
2022/12/02 10:30:21;;;;;;;61.28;19.52;;;;;;;;;;6213423;23;20012;-91
2022/12/02 10:33:05;;;;;;;64.07;21.35;;;;;;;;;;6216224;23;20420;-91
2022/12/02 10:35:45;;;;;;;57.42;18.88;;;;;;;;;;6211154;23;20004;-92
2022/12/02 10:38:30;;;;;;;68.03;17.95;;;;;;;;;;6212660;23;20574;-92
2022/12/02 10:41:12;;;;;;;50.30;18.10;;;;;;;;;;6213372;23;20000;-91
2022/12/02 10:43:43;;;;;;;55.80;18.13;;;;;;;;;;6212066;23;20008;-91
2022/12/02 10:46:13;;;;;;;56.33;18.40;;;;;;;;;;6212832;23;20008;-91
2022/12/02 10:48:39;;;;;;;56.30;18.27;;;;;;;;;;6211449;23;20015;-92
2022/12/02 10:51:06;;;;;;;53.45;18.60;;;;;;;;;;6212448;23;20012;-91
2022/12/02 10:53:32;;;;;;;59.67;20.05;;;;;;;;;;6212048;23;20447;-91
2022/12/02 10:55:58;;;;;;;63.03;18.33;;;;;;;;;;6212791;23;20008;-91
2022/12/02 10:58:29;;;;;;;63.55;20.63;;;;;;;;;;6212366;23;20365;-91
2022/12/02 11:00:59;;;;;;;57.10;18.00;;;;;;;;;;6212096;23;20035;-91
2022/12/02 11:03:28;;;;;;;60.20;20.40;;;;;;;;;;6213514;23;20005;-92
2022/12/02 11:05:54;;;;;;;54.58;20.75;;;;;;;;;;6210061;23;20042;-92
2022/12/02 11:08:27;;;;;;;70.45;22.83;;;;;;;;;;6212218;23;20027;-92
2022/12/02 11:11:19;;;;;;;66.88;22.40;;;;;;;;;;6212652;22;20019;-91
2022/12/02 11:14:13;;;;;;;61.42;22.45;;;;;;;;;;6213204;23;20523;-91
2022/12/02 11:16:39;;;;;;;57.92;20.20;;;;;;;;;;6212941;23;20012;-91
2022/12/02 11:19:11;;;;;;;52.55;17.85;;;;;;;;;;6211743;23;20158;-91
2022/12/02 11:21:47;;;;;;;65.88;23.13;;;;;;;;;;6212785;23;20004;-91
2022/12/02 11:24:22;;;;;;;55.97;21.05;;;;;;;;;;6212447;23;20026;-91
2022/12/02 11:27:03;;;;;;;72.75;22.50;;;;;;;;;;6212017;23;20043;-91
2022/12/02 11:29:45;;;;;;;51.83;18.25;;;;;;;;;;6212061;23;20058;-91
2022/12/02 11:32:20;;;;;;;53.15;19.90;;;;;;;;;;6211495;23;20008;-90
2022/12/02 11:34:54;;;;;;;60.50;23.25;;;;;;;;;;6210325;23;20016;-91
2022/12/02 11:37:41;;;;;;;73.35;26.25;;;;;;;;;;6212037;23;20463;-91
2022/12/02 11:40:10;;;;;;;65.82;24.85;;;;;;;;;;6211562;23;20478;-91
2022/12/02 11:42:46;;;;;;;64.90;26.58;;;;;;;;;;6211747;23;20008;-92
2022/12/02 11:45:16;;;;;;;55.17;20.30;;;;;;;;;;6212267;23;20008;-91
2022/12/02 11:47:43;;;;;;;67.97;26.52;;;;;;;;;;6211212;23;20066;-92
2022/12/02 11:50:37;;;;;;;53.22;18.70;;;;;;;;;;6211713;23;20038;-91
2022/12/02 11:53:10;;;;;;;56.78;21.70;;;;;;;;;;6203372;23;20008;-93
2022/12/02 11:55:45;;;;;;;61.28;24.38;;;;;;;;;;6211330;23;20443;-92
2022/12/02 11:58:38;;;;;;;59.92;22.45;;;;;;;;;;6211728;23;20066;-91
2022/12/02 12:01:15;;;;;;;59.00;21.95;;;;;;;;;;6209976;23;20007;-92
2022/12/02 12:03:58;;;;;;;53.22;21.58;;;;;;;;;;6213420;23;20359;-92
2022/12/02 12:06:47;;;;;;;55.33;20.90;;;;;;;;;;6185477;23;20085;-91
2022/12/02 12:09:20;;;;;;;58.15;23.83;;;;;;;;;;6200716;23;20399;-92
2022/12/02 12:12:04;;;;;;;57.78;22.67;;;;;;;;;;6213393;22;20452;-92
2022/12/02 12:14:32;;;;;;;59.33;20.30;;;;;;;;;;6209141;23;20012;-92
2022/12/02 12:17:28;;;;;;;50.72;18.88;;;;;;;;;;6213530;23;20099;-91
2022/12/02 12:20:06;;;;;;;60.60;23.33;;;;;;;;;;6213644;23;20420;-92
2022/12/02 12:22:42;;;;;;;57.28;21.50;;;;;;;;;;6215620;23;20246;-91
2022/12/02 12:25:27;;;;;;;53.85;18.00;;;;;;;;;;6214073;23;20020;-91
2022/12/02 12:28:02;;;;;;;47.05;18.58;;;;;;;;;;6215025;23;20087;-91
2022/12/02 12:30:56;;;;;;;;;;;;;;;;;;;;;
2022/12/02 12:33:25;;;;;;;45.80;17.75;;;;;;;;;;6240561;23;20260;-92
2022/12/02 12:35:55;;;;;;;45.38;17.23;;;;;;;;;;6212815;23;20039;-91
2022/12/02 12:38:22;;;;;;;50.88;18.65;;;;;;;;;;6214397;23;20005;-92
2022/12/02 12:40:56;;;;;;;52.90;20.40;;;;;;;;;;6212780;23;20005;-91
2022/12/02 12:43:34;;;;;;;41.67;15.38;;;;;;;;;;6215371;23;20004;-92
2022/12/02 12:49:17;;;;;;;51.17;19.00;;;;;;;;;;6147314;23;20048;-91
2022/12/02 12:52:06;;;;;;;53.63;19.25;;;;;;;;;;6123283;23;20013;-92
2022/12/02 12:54:52;;;;;;;;;;;;;;;;;;;;;
2022/12/02 12:57:24;;;;;;;;;;;;;;;;;;6224940;23;20091;-92
2022/12/02 13:00:22;;;;;;;47.25;18.90;;;;;;;;;;6220355;23;20386;-91
2022/12/02 13:03:15;;;;;;;55.15;18.95;;;;;;;;;;6232583;23;20444;-91
2022/12/02 13:09:41;;;;;;;48.80;17.40;;;;;;;;;;6149080;23;20017;-91
2022/12/02 13:12:30;;;;;;;51.83;18.83;;;;;;;;;;6110324;23;20045;-92
2022/12/02 13:15:25;;;;;;;48.40;17.15;;;;;;;;;;6045265;23;20375;-91
2022/12/02 13:18:05;;;;;;;51.42;20.30;;;;;;;;;;6097339;23;20479;-92
2022/12/02 13:20:54;;;;;;;57.97;21.50;;;;;;;;;;6152787;23;20055;-91
2022/12/02 13:23:44;;;;;;;;;;;;;;;;;;;;;
2022/12/02 13:26:16;;;;;;;54.35;20.05;;;;;;;;;;6178425;23;20730;-92
2022/12/02 13:29:07;;;;;;;51.58;20.25;;;;;;;;;;6150445;23;20009;-92
2022/12/02 13:31:39;;;;;;;55.20;20.17;;;;;;;;;;6138999;23;20009;-91
2022/12/02 13:43:43;;;;;;;53.90;21.40;;;;;;;;;;6176883;23;20494;-92
2022/12/02 13:46:44;;;;;;;44.47;16.73;;;;;;;;;;6183166;23;20013;-92
2022/12/02 13:49:32;;;;;;;39.72;15.77;;;;;;;;;;6207135;23;20021;-92
2022/12/02 13:52:52;;;;;;;46.45;19.85;;;;;;;;;;6173720;23;20009;-91
2022/12/02 13:55:24;;;;;;;61.63;20.63;;;;;;;;;;6205675;23;20017;-91
2022/12/02 13:58:36;;;;;;;58.25;19.92;;;;;;;;;;6184304;23;20044;-92
2022/12/02 14:01:21;;;;;;;;;;;;;;;;;;;;;
2022/12/02 14:03:50;;;;;;;45.72;17.85;;;;;;;;;;6207725;23;20286;-92
2022/12/02 14:06:16;;;;;;;60.42;18.80;;;;;;;;;;6208747;23;20036;-91
2022/12/02 14:08:42;;;;;;;48.25;16.58;;;;;;;;;;6183756;23;20013;-92
2022/12/02 14:11:14;;;;;;;49.58;20.33;;;;;;;;;;6211271;22;20068;-92
2022/12/02 14:13:52;;;;;;;56.38;20.70;;;;;;;;;;6212323;22;20408;-92
2022/12/02 14:16:19;;;;;;;49.08;18.40;;;;;;;;;;6189369;23;20050;-92
2022/12/02 14:18:46;;;;;;;45.10;15.32;;;;;;;;;;6212112;23;20083;-91
2022/12/02 14:24:21;;;;;;;54.13;19.48;;;;;;;;;;6153021;23;20392;-92
2022/12/02 14:26:48;;;;;;;46.45;16.90;;;;;;;;;;6185470;23;20368;-91
2022/12/02 14:29:14;;;;;;;40.63;15.30;;;;;;;;;;6211881;23;20444;-91
2022/12/02 14:31:43;;;;;;;48.20;18.75;;;;;;;;;;6214951;23;20008;-91
2022/12/02 14:34:09;;;;;;;40.88;17.40;;;;;;;;;;6217266;23;20022;-91
2022/12/02 14:36:44;;;;;;;52.13;17.13;;;;;;;;;;6220415;23;20038;-90
2022/12/02 14:39:15;;;;;;;55.65;20.25;;;;;;;;;;6222677;23;20005;-91
2022/12/02 14:41:54;;;;;;;59.38;20.98;;;;;;;;;;6251955;23;20004;-91
2022/12/02 14:47:41;;;;;;;54.65;19.17;;;;;;;;;;6205089;23;20008;-91
2022/12/02 14:50:25;;;;;;;65.10;21.15;;;;;;;;;;6227029;23;19996;-91
2022/12/02 14:53:09;;;;;;;56.40;19.90;;;;;;;;;;6251065;23;20008;-91
2022/12/02 14:55:47;;;;;;;64.10;22.77;;;;;;;;;;6224839;23;20008;-91
2022/12/02 14:58:23;;;;;;;62.85;21.73;;;;;;;;;;6240496;23;20034;-91
2022/12/02 15:00:49;;;;;;;59.67;21.30;;;;;;;;;;6222978;23;20012;-91
2022/12/02 15:03:15;;;;;;;60.00;21.77;;;;;;;;;;6227822;23;20413;-91
2022/12/02 15:05:43;;;;;;;49.25;17.85;;;;;;;;;;6228742;23;20004;-92
2022/12/02 15:08:15;;;;;;;54.38;21.35;;;;;;;;;;6227050;23;20019;-92
2022/12/02 15:17:12;;;;;;;54.33;20.23;;;;;;;;;;6158309;23;20021;-91
2022/12/02 15:19:42;;;;;;;51.60;18.85;;;;;;;;;;6201466;23;20082;-90
2022/12/02 15:22:18;;;;;;;47.90;15.88;;;;;;;;;;6213459;23;20011;-91
2022/12/02 15:24:45;;;;;;;59.92;20.60;;;;;;;;;;6212911;23;20534;-90
2022/12/02 15:27:13;;;;;;;50.25;18.50;;;;;;;;;;6210802;23;20375;-91